HEAL

Details ICAO HEAL (DBB)
Name AL ALAMAIN INTL
Region Egypt
Timezone Africa/Cairo (UTC+2.0)
Plans Departing 26
Arriving 30
Stats Elevation 143 ft / 44 m (AMSL)
Location 30.924400° 28.461400°
Runways 1
Magnetic Variation 4.426° E
Sunrise 2019-05-19 03:10:18 UTC / 2019-05-19 05:10:18 Local
Sunset 2019-05-19 16:57:44 UTC / 2019-05-19 18:57:44 Local
Advertisement - Login to hide

Runways

ID Width Length Bearing (true/mag) Surface Threshold Overrun Markings Lighting
13 148 ft / 45 m 11,484 ft / 3,500 m 130.91° / 126.48° ASPHALT 0 ft / 0 m 270 ft / 82 m APP EDGE THRESHOLD MALS
31 148 ft / 45 m 11,484 ft / 3,500 m 310.92° / 306.50° ASPHALT 0 ft / 0 m 270 ft / 82 m APP EDGE THRESHOLD CALVERT

Map

Weather


0- 5 10 15 20 25 30 35+ Temperature / °C

Clouds and Precipitation
Forecast for 2019-05-19 18:00 UTC. Updated 5 hours ago

Ground ~20,000 ft ~40,000 ft Winds

METAR

Not found

TAF

TAF HEAL 191700Z 1918/2024 13014KT 6000 NSC

Frequencies

Tower 123.40 MHz
Tower 120.00 MHz
Ground 121.90 MHz
Warning: Do not use this data for real-world aviation or navigation. No guarantee of current accuracy is given.